sensor_id;sensor_type;location;lat;lon;timestamp;P1;durP1;ratioP1;P2;durP2;ratioP2
61188;SDS011;47054;39.716;2.904;2022-12-24T00:00:38;3.50;;;1.70;;
61188;SDS011;47054;39.716;2.904;2022-12-24T00:03:22;5.20;;;1.95;;
61188;SDS011;47054;39.716;2.904;2022-12-24T00:06:08;3.20;;;1.80;;
61188;SDS011;47054;39.716;2.904;2022-12-24T00:08:59;3.13;;;1.75;;
61188;SDS011;47054;39.716;2.904;2022-12-24T00:11:44;3.88;;;1.85;;
61188;SDS011;47054;39.716;2.904;2022-12-24T00:14:28;4.20;;;1.70;;
61188;SDS011;47054;39.716;2.904;2022-12-24T00:17:13;3.60;;;1.85;;
61188;SDS011;47054;39.716;2.904;2022-12-24T00:19:59;3.20;;;1.80;;
61188;SDS011;47054;39.716;2.904;2022-12-24T00:22:44;3.33;;;1.80;;
61188;SDS011;47054;39.716;2.904;2022-12-24T00:25:29;3.13;;;1.67;;
61188;SDS011;47054;39.716;2.904;2022-12-24T00:28:14;2.95;;;1.63;;
61188;SDS011;47054;39.716;2.904;2022-12-24T00:30:58;3.80;;;2.00;;
61188;SDS011;47054;39.716;2.904;2022-12-24T00:33:46;3.35;;;1.60;;
61188;SDS011;47054;39.716;2.904;2022-12-24T00:36:34;3.83;;;1.75;;
61188;SDS011;47054;39.716;2.904;2022-12-24T00:39:18;3.08;;;1.77;;
61188;SDS011;47054;39.716;2.904;2022-12-24T00:42:03;3.00;;;1.60;;
61188;SDS011;47054;39.716;2.904;2022-12-24T00:44:48;3.25;;;1.80;;
61188;SDS011;47054;39.716;2.904;2022-12-24T00:47:33;3.25;;;1.70;;
61188;SDS011;47054;39.716;2.904;2022-12-24T00:50:17;3.50;;;1.60;;
61188;SDS011;47054;39.716;2.904;2022-12-24T00:53:02;3.78;;;1.70;;
61188;SDS011;47054;39.716;2.904;2022-12-24T00:55:47;2.40;;;1.50;;
61188;SDS011;47054;39.716;2.904;2022-12-24T00:58:32;3.22;;;1.80;;
61188;SDS011;47054;39.716;2.904;2022-12-24T01:01:16;2.70;;;1.60;;
61188;SDS011;47054;39.716;2.904;2022-12-24T01:04:01;2.97;;;1.70;;
61188;SDS011;47054;39.716;2.904;2022-12-24T01:07:07;3.88;;;1.80;;
61188;SDS011;47054;39.716;2.904;2022-12-24T01:09:51;3.00;;;1.70;;
61188;SDS011;47054;39.716;2.904;2022-12-24T01:12:36;2.72;;;1.63;;
61188;SDS011;47054;39.716;2.904;2022-12-24T01:15:21;2.55;;;1.50;;
61188;SDS011;47054;39.716;2.904;2022-12-24T01:18:06;3.05;;;1.67;;
61188;SDS011;47054;39.716;2.904;2022-12-24T01:20:57;2.65;;;1.58;;
61188;SDS011;47054;39.716;2.904;2022-12-24T01:23:46;4.28;;;1.60;;
61188;SDS011;47054;39.716;2.904;2022-12-24T01:26:30;3.28;;;1.80;;
61188;SDS011;47054;39.716;2.904;2022-12-24T01:29:15;4.43;;;1.80;;
61188;SDS011;47054;39.716;2.904;2022-12-24T01:31:59;2.67;;;1.40;;
61188;SDS011;47054;39.716;2.904;2022-12-24T01:34:44;2.53;;;1.55;;
61188;SDS011;47054;39.716;2.904;2022-12-24T01:37:28;3.38;;;1.58;;
61188;SDS011;47054;39.716;2.904;2022-12-24T01:40:14;2.63;;;1.60;;
61188;SDS011;47054;39.716;2.904;2022-12-24T01:43:19;3.25;;;1.70;;
61188;SDS011;47054;39.716;2.904;2022-12-24T01:46:19;3.65;;;1.88;;
61188;SDS011;47054;39.716;2.904;2022-12-24T01:49:10;2.37;;;1.57;;
61188;SDS011;47054;39.716;2.904;2022-12-24T01:52:01;3.22;;;1.55;;
61188;SDS011;47054;39.716;2.904;2022-12-24T01:54:49;2.90;;;1.55;;
61188;SDS011;47054;39.716;2.904;2022-12-24T01:57:43;3.47;;;1.55;;
61188;SDS011;47054;39.716;2.904;2022-12-24T02:00:31;2.67;;;1.50;;
61188;SDS011;47054;39.716;2.904;2022-12-24T02:03:16;2.80;;;1.45;;
61188;SDS011;47054;39.716;2.904;2022-12-24T02:06:02;2.70;;;1.50;;
61188;SDS011;47054;39.716;2.904;2022-12-24T02:08:47;3.20;;;1.50;;
61188;SDS011;47054;39.716;2.904;2022-12-24T02:11:32;3.58;;;1.58;;
61188;SDS011;47054;39.716;2.904;2022-12-24T02:14:20;2.78;;;1.60;;
61188;SDS011;47054;39.716;2.904;2022-12-24T02:31:31;2.95;;;1.60;;
61188;SDS011;47054;39.716;2.904;2022-12-24T02:37:36;2.92;;;1.40;;
61188;SDS011;47054;39.716;2.904;2022-12-24T02:40:26;3.47;;;1.80;;
61188;SDS011;47054;39.716;2.904;2022-12-24T02:43:16;2.47;;;1.33;;
61188;SDS011;47054;39.716;2.904;2022-12-24T02:46:10;1.83;;;1.30;;
61188;SDS011;47054;39.716;2.904;2022-12-24T02:49:04;2.72;;;1.58;;
61188;SDS011;47054;39.716;2.904;2022-12-24T02:51:49;2.65;;;1.50;;
61188;SDS011;47054;39.716;2.904;2022-12-24T02:54:33;2.05;;;1.42;;
61188;SDS011;47054;39.716;2.904;2022-12-24T03:00:17;2.63;;;1.50;;
61188;SDS011;47054;39.716;2.904;2022-12-24T03:03:23;2.70;;;1.50;;
61188;SDS011;47054;39.716;2.904;2022-12-24T03:12:40;2.53;;;1.30;;
61188;SDS011;47054;39.716;2.904;2022-12-24T03:15:30;2.40;;;1.40;;
61188;SDS011;47054;39.716;2.904;2022-12-24T03:18:17;2.38;;;1.40;;
61188;SDS011;47054;39.716;2.904;2022-12-24T03:23:57;2.20;;;1.38;;
61188;SDS011;47054;39.716;2.904;2022-12-24T03:26:43;3.20;;;1.50;;
61188;SDS011;47054;39.716;2.904;2022-12-24T03:29:29;2.35;;;1.40;;
61188;SDS011;47054;39.716;2.904;2022-12-24T03:32:13;2.45;;;1.38;;
61188;SDS011;47054;39.716;2.904;2022-12-24T03:34:58;2.55;;;1.25;;
61188;SDS011;47054;39.716;2.904;2022-12-24T03:37:43;3.78;;;1.55;;
61188;SDS011;47054;39.716;2.904;2022-12-24T03:40:28;2.47;;;1.30;;
61188;SDS011;47054;39.716;2.904;2022-12-24T03:43:14;3.22;;;1.30;;
61188;SDS011;47054;39.716;2.904;2022-12-24T03:46:02;2.42;;;1.40;;
61188;SDS011;47054;39.716;2.904;2022-12-24T03:48:48;2.97;;;1.50;;
61188;SDS011;47054;39.716;2.904;2022-12-24T03:51:33;3.83;;;1.50;;
61188;SDS011;47054;39.716;2.904;2022-12-24T03:54:17;2.20;;;1.20;;
61188;SDS011;47054;39.716;2.904;2022-12-24T03:57:02;2.17;;;1.33;;
61188;SDS011;47054;39.716;2.904;2022-12-24T03:59:47;2.83;;;1.42;;
61188;SDS011;47054;39.716;2.904;2022-12-24T04:02:31;2.30;;;1.40;;
61188;SDS011;47054;39.716;2.904;2022-12-24T04:05:17;2.25;;;1.40;;
61188;SDS011;47054;39.716;2.904;2022-12-24T04:08:03;2.45;;;1.40;;
61188;SDS011;47054;39.716;2.904;2022-12-24T04:10:47;2.70;;;1.45;;
61188;SDS011;47054;39.716;2.904;2022-12-24T04:13:32;2.15;;;1.30;;
61188;SDS011;47054;39.716;2.904;2022-12-24T04:16:17;2.47;;;1.40;;
61188;SDS011;47054;39.716;2.904;2022-12-24T04:19:01;2.72;;;1.55;;
61188;SDS011;47054;39.716;2.904;2022-12-24T04:21:46;2.22;;;1.17;;
61188;SDS011;47054;39.716;2.904;2022-12-24T04:24:32;2.88;;;1.45;;
61188;SDS011;47054;39.716;2.904;2022-12-24T04:27:16;3.03;;;1.40;;
61188;SDS011;47054;39.716;2.904;2022-12-24T04:30:01;2.20;;;1.40;;
61188;SDS011;47054;39.716;2.904;2022-12-24T04:32:46;3.58;;;1.30;;
61188;SDS011;47054;39.716;2.904;2022-12-24T04:35:31;2.45;;;1.50;;
61188;SDS011;47054;39.716;2.904;2022-12-24T04:38:16;2.72;;;1.30;;
61188;SDS011;47054;39.716;2.904;2022-12-24T04:41:01;2.50;;;1.50;;
61188;SDS011;47054;39.716;2.904;2022-12-24T04:43:46;3.10;;;1.40;;
61188;SDS011;47054;39.716;2.904;2022-12-24T04:46:32;2.40;;;1.30;;
61188;SDS011;47054;39.716;2.904;2022-12-24T04:49:18;1.88;;;1.10;;
61188;SDS011;47054;39.716;2.904;2022-12-24T04:52:03;1.88;;;1.20;;
61188;SDS011;47054;39.716;2.904;2022-12-24T04:54:48;2.28;;;1.30;;
61188;SDS011;47054;39.716;2.904;2022-12-24T04:57:32;2.55;;;1.30;;
61188;SDS011;47054;39.716;2.904;2022-12-24T05:00:19;2.47;;;1.23;;
61188;SDS011;47054;39.716;2.904;2022-12-24T05:03:03;2.65;;;1.40;;
61188;SDS011;47054;39.716;2.904;2022-12-24T05:05:48;2.35;;;1.35;;
61188;SDS011;47054;39.716;2.904;2022-12-24T05:08:33;3.17;;;1.42;;
61188;SDS011;47054;39.716;2.904;2022-12-24T05:11:17;2.83;;;1.30;;
61188;SDS011;47054;39.716;2.904;2022-12-24T05:14:02;2.50;;;1.33;;
61188;SDS011;47054;39.716;2.904;2022-12-24T05:16:47;2.28;;;1.30;;
61188;SDS011;47054;39.716;2.904;2022-12-24T05:19:31;1.90;;;1.27;;
61188;SDS011;47054;39.716;2.904;2022-12-24T05:22:16;2.42;;;1.42;;
61188;SDS011;47054;39.716;2.904;2022-12-24T05:25:19;2.47;;;1.40;;
61188;SDS011;47054;39.716;2.904;2022-12-24T05:28:23;1.88;;;1.20;;
61188;SDS011;47054;39.716;2.904;2022-12-24T05:31:08;2.65;;;1.40;;
61188;SDS011;47054;39.716;2.904;2022-12-24T05:33:52;3.65;;;1.50;;
61188;SDS011;47054;39.716;2.904;2022-12-24T05:36:38;2.83;;;1.33;;
61188;SDS011;47054;39.716;2.904;2022-12-24T05:39:23;2.20;;;1.25;;
61188;SDS011;47054;39.716;2.904;2022-12-24T05:42:07;2.40;;;1.40;;
61188;SDS011;47054;39.716;2.904;2022-12-24T05:44:52;2.47;;;1.33;;
61188;SDS011;47054;39.716;2.904;2022-12-24T05:47:37;2.00;;;1.10;;
61188;SDS011;47054;39.716;2.904;2022-12-24T05:50:21;2.30;;;1.20;;
61188;SDS011;47054;39.716;2.904;2022-12-24T05:53:06;2.60;;;1.30;;
61188;SDS011;47054;39.716;2.904;2022-12-24T05:55:51;2.38;;;1.40;;
61188;SDS011;47054;39.716;2.904;2022-12-24T05:58:35;2.17;;;1.20;;
61188;SDS011;47054;39.716;2.904;2022-12-24T06:01:21;2.70;;;1.40;;
61188;SDS011;47054;39.716;2.904;2022-12-24T06:04:06;2.13;;;1.15;;
61188;SDS011;47054;39.716;2.904;2022-12-24T06:06:50;2.50;;;1.50;;
61188;SDS011;47054;39.716;2.904;2022-12-24T06:09:36;2.22;;;1.23;;
61188;SDS011;47054;39.716;2.904;2022-12-24T06:12:21;2.05;;;1.25;;
61188;SDS011;47054;39.716;2.904;2022-12-24T06:15:06;2.70;;;1.33;;
61188;SDS011;47054;39.716;2.904;2022-12-24T06:17:51;2.60;;;1.60;;
61188;SDS011;47054;39.716;2.904;2022-12-24T06:20:35;1.77;;;1.15;;
61188;SDS011;47054;39.716;2.904;2022-12-24T06:23:20;3.08;;;1.30;;
61188;SDS011;47054;39.716;2.904;2022-12-24T06:26:06;2.42;;;1.30;;
61188;SDS011;47054;39.716;2.904;2022-12-24T06:28:51;2.38;;;1.20;;
61188;SDS011;47054;39.716;2.904;2022-12-24T06:31:36;2.05;;;1.20;;
61188;SDS011;47054;39.716;2.904;2022-12-24T06:34:20;2.00;;;1.25;;
61188;SDS011;47054;39.716;2.904;2022-12-24T06:37:05;2.42;;;1.38;;
61188;SDS011;47054;39.716;2.904;2022-12-24T06:39:50;2.05;;;1.23;;
61188;SDS011;47054;39.716;2.904;2022-12-24T06:42:34;2.65;;;1.45;;
61188;SDS011;47054;39.716;2.904;2022-12-24T06:45:19;2.13;;;1.23;;
61188;SDS011;47054;39.716;2.904;2022-12-24T06:48:04;2.70;;;1.27;;
61188;SDS011;47054;39.716;2.904;2022-12-24T06:50:49;2.45;;;1.38;;
61188;SDS011;47054;39.716;2.904;2022-12-24T06:53:34;2.28;;;1.30;;
61188;SDS011;47054;39.716;2.904;2022-12-24T06:56:19;2.25;;;1.20;;
61188;SDS011;47054;39.716;2.904;2022-12-24T06:59:04;2.63;;;1.33;;
61188;SDS011;47054;39.716;2.904;2022-12-24T07:01:49;2.50;;;1.33;;
61188;SDS011;47054;39.716;2.904;2022-12-24T07:04:34;3.22;;;1.40;;
61188;SDS011;47054;39.716;2.904;2022-12-24T07:07:18;1.98;;;1.30;;
61188;SDS011;47054;39.716;2.904;2022-12-24T07:10:03;2.15;;;1.30;;
61188;SDS011;47054;39.716;2.904;2022-12-24T07:12:48;1.90;;;1.20;;
61188;SDS011;47054;39.716;2.904;2022-12-24T07:15:35;2.47;;;1.50;;
61188;SDS011;47054;39.716;2.904;2022-12-24T07:18:20;2.88;;;1.50;;
61188;SDS011;47054;39.716;2.904;2022-12-24T07:21:05;2.35;;;1.40;;
61188;SDS011;47054;39.716;2.904;2022-12-24T07:23:50;2.63;;;1.40;;
61188;SDS011;47054;39.716;2.904;2022-12-24T07:26:36;2.53;;;1.48;;
61188;SDS011;47054;39.716;2.904;2022-12-24T07:29:21;2.22;;;1.20;;
61188;SDS011;47054;39.716;2.904;2022-12-24T07:32:05;2.20;;;1.50;;
61188;SDS011;47054;39.716;2.904;2022-12-24T07:34:50;2.30;;;1.30;;
61188;SDS011;47054;39.716;2.904;2022-12-24T07:37:34;3.05;;;1.40;;
61188;SDS011;47054;39.716;2.904;2022-12-24T07:40:19;2.53;;;1.45;;
61188;SDS011;47054;39.716;2.904;2022-12-24T07:43:03;4.28;;;1.50;;
61188;SDS011;47054;39.716;2.904;2022-12-24T07:45:49;2.75;;;1.38;;
61188;SDS011;47054;39.716;2.904;2022-12-24T07:48:34;2.85;;;1.40;;
61188;SDS011;47054;39.716;2.904;2022-12-24T07:51:21;2.88;;;1.40;;
61188;SDS011;47054;39.716;2.904;2022-12-24T07:54:06;2.85;;;1.40;;
61188;SDS011;47054;39.716;2.904;2022-12-24T07:56:53;3.08;;;1.40;;
61188;SDS011;47054;39.716;2.904;2022-12-24T07:59:46;2.15;;;1.33;;
61188;SDS011;47054;39.716;2.904;2022-12-24T08:02:33;2.63;;;1.30;;
61188;SDS011;47054;39.716;2.904;2022-12-24T08:05:28;2.27;;;1.40;;
61188;SDS011;47054;39.716;2.904;2022-12-24T08:08:16;2.35;;;1.40;;
61188;SDS011;47054;39.716;2.904;2022-12-24T08:11:05;2.63;;;1.50;;
61188;SDS011;47054;39.716;2.904;2022-12-24T08:13:50;2.40;;;1.50;;
61188;SDS011;47054;39.716;2.904;2022-12-24T08:16:35;1.98;;;1.20;;
61188;SDS011;47054;39.716;2.904;2022-12-24T08:19:21;4.15;;;1.50;;
61188;SDS011;47054;39.716;2.904;2022-12-24T08:22:09;2.13;;;1.30;;
61188;SDS011;47054;39.716;2.904;2022-12-24T08:24:54;2.55;;;1.27;;
61188;SDS011;47054;39.716;2.904;2022-12-24T08:27:38;2.78;;;1.40;;
61188;SDS011;47054;39.716;2.904;2022-12-24T08:30:24;2.30;;;1.50;;
61188;SDS011;47054;39.716;2.904;2022-12-24T08:33:15;2.22;;;1.20;;
61188;SDS011;47054;39.716;2.904;2022-12-24T08:36:05;3.75;;;1.55;;
61188;SDS011;47054;39.716;2.904;2022-12-24T08:38:52;1.83;;;1.20;;
61188;SDS011;47054;39.716;2.904;2022-12-24T08:41:36;2.25;;;1.50;;
61188;SDS011;47054;39.716;2.904;2022-12-24T08:44:24;2.42;;;1.50;;
61188;SDS011;47054;39.716;2.904;2022-12-24T08:47:08;5.68;;;2.60;;
61188;SDS011;47054;39.716;2.904;2022-12-24T08:49:53;8.10;;;3.70;;
61188;SDS011;47054;39.716;2.904;2022-12-24T08:52:42;7.50;;;3.38;;
61188;SDS011;47054;39.716;2.904;2022-12-24T08:55:27;6.30;;;3.38;;
61188;SDS011;47054;39.716;2.904;2022-12-24T08:58:14;8.95;;;3.67;;
61188;SDS011;47054;39.716;2.904;2022-12-24T09:00:59;8.80;;;3.42;;
61188;SDS011;47054;39.716;2.904;2022-12-24T09:03:44;9.57;;;4.30;;
61188;SDS011;47054;39.716;2.904;2022-12-24T09:06:28;9.70;;;4.05;;
61188;SDS011;47054;39.716;2.904;2022-12-24T09:09:15;9.55;;;4.00;;
61188;SDS011;47054;39.716;2.904;2022-12-24T09:12:01;12.27;;;4.10;;
61188;SDS011;47054;39.716;2.904;2022-12-24T09:14:49;16.17;;;4.80;;
61188;SDS011;47054;39.716;2.904;2022-12-24T09:17:34;17.25;;;4.72;;
61188;SDS011;47054;39.716;2.904;2022-12-24T09:20:19;12.90;;;4.30;;
61188;SDS011;47054;39.716;2.904;2022-12-24T09:23:04;20.85;;;4.05;;
61188;SDS011;47054;39.716;2.904;2022-12-24T09:25:49;16.20;;;5.07;;
61188;SDS011;47054;39.716;2.904;2022-12-24T09:28:34;16.42;;;4.60;;
61188;SDS011;47054;39.716;2.904;2022-12-24T09:31:19;16.40;;;5.03;;
61188;SDS011;47054;39.716;2.904;2022-12-24T09:34:05;12.82;;;4.82;;
61188;SDS011;47054;39.716;2.904;2022-12-24T09:36:50;17.05;;;4.80;;
61188;SDS011;47054;39.716;2.904;2022-12-24T09:39:37;12.98;;;4.63;;
61188;SDS011;47054;39.716;2.904;2022-12-24T09:42:39;13.73;;;4.68;;
61188;SDS011;47054;39.716;2.904;2022-12-24T09:45:35;20.65;;;5.47;;
61188;SDS011;47054;39.716;2.904;2022-12-24T09:48:24;16.10;;;4.65;;
61188;SDS011;47054;39.716;2.904;2022-12-24T09:51:19;14.27;;;4.93;;
61188;SDS011;47054;39.716;2.904;2022-12-24T09:54:27;14.38;;;4.47;;
61188;SDS011;47054;39.716;2.904;2022-12-24T09:57:37;12.43;;;4.10;;
61188;SDS011;47054;39.716;2.904;2022-12-24T10:00:22;16.17;;;4.13;;
61188;SDS011;47054;39.716;2.904;2022-12-24T10:03:15;16.77;;;4.10;;
61188;SDS011;47054;39.716;2.904;2022-12-24T10:06:17;10.48;;;3.88;;
61188;SDS011;47054;39.716;2.904;2022-12-24T10:09:39;10.23;;;3.38;;
61188;SDS011;47054;39.716;2.904;2022-12-24T10:12:37;13.60;;;3.75;;
61188;SDS011;47054;39.716;2.904;2022-12-24T10:24:42;15.77;;;3.67;;
61188;SDS011;47054;39.716;2.904;2022-12-24T10:27:36;10.48;;;3.40;;
61188;SDS011;47054;39.716;2.904;2022-12-24T10:30:23;9.38;;;3.80;;
61188;SDS011;47054;39.716;2.904;2022-12-24T10:33:17;20.50;;;3.80;;
61188;SDS011;47054;39.716;2.904;2022-12-24T10:36:06;13.55;;;3.80;;
61188;SDS011;47054;39.716;2.904;2022-12-24T10:38:57;15.52;;;3.50;;
61188;SDS011;47054;39.716;2.904;2022-12-24T10:41:42;9.57;;;3.95;;
61188;SDS011;47054;39.716;2.904;2022-12-24T10:44:29;10.07;;;3.60;;
61188;SDS011;47054;39.716;2.904;2022-12-24T10:47:15;17.48;;;3.92;;
61188;SDS011;47054;39.716;2.904;2022-12-24T10:50:05;10.32;;;3.20;;
61188;SDS011;47054;39.716;2.904;2022-12-24T10:53:13;14.80;;;3.80;;
61188;SDS011;47054;39.716;2.904;2022-12-24T10:56:03;10.10;;;3.50;;
61188;SDS011;47054;39.716;2.904;2022-12-24T10:58:52;8.68;;;3.55;;
61188;SDS011;47054;39.716;2.904;2022-12-24T11:01:42;13.82;;;3.80;;
61188;SDS011;47054;39.716;2.904;2022-12-24T11:04:29;9.43;;;3.60;;
61188;SDS011;47054;39.716;2.904;2022-12-24T11:07:21;11.75;;;3.70;;
61188;SDS011;47054;39.716;2.904;2022-12-24T11:10:12;10.35;;;3.83;;
61188;SDS011;47054;39.716;2.904;2022-12-24T11:16:18;12.70;;;5.13;;
61188;SDS011;47054;39.716;2.904;2022-12-24T11:19:23;13.75;;;4.65;;
61188;SDS011;47054;39.716;2.904;2022-12-24T11:22:18;10.13;;;4.10;;
61188;SDS011;47054;39.716;2.904;2022-12-24T11:25:23;12.93;;;4.50;;
61188;SDS011;47054;39.716;2.904;2022-12-24T11:28:30;16.00;;;4.20;;
61188;SDS011;47054;39.716;2.904;2022-12-24T11:31:21;14.25;;;3.60;;
61188;SDS011;47054;39.716;2.904;2022-12-24T11:37:22;9.60;;;3.40;;
61188;SDS011;47054;39.716;2.904;2022-12-24T11:40:22;8.73;;;3.50;;
61188;SDS011;47054;39.716;2.904;2022-12-24T11:43:23;10.60;;;3.33;;
61188;SDS011;47054;39.716;2.904;2022-12-24T11:46:35;11.88;;;3.35;;
61188;SDS011;47054;39.716;2.904;2022-12-24T11:52:21;11.60;;;3.33;;
61188;SDS011;47054;39.716;2.904;2022-12-24T12:01:53;12.85;;;4.38;;
61188;SDS011;47054;39.716;2.904;2022-12-24T12:04:38;12.68;;;3.65;;
61188;SDS011;47054;39.716;2.904;2022-12-24T12:07:29;12.50;;;4.32;;
61188;SDS011;47054;39.716;2.904;2022-12-24T12:13:10;14.60;;;4.60;;
61188;SDS011;47054;39.716;2.904;2022-12-24T12:18:53;11.85;;;4.40;;
61188;SDS011;47054;39.716;2.904;2022-12-24T12:21:46;13.02;;;4.25;;
61188;SDS011;47054;39.716;2.904;2022-12-24T12:24:35;12.20;;;3.53;;
61188;SDS011;47054;39.716;2.904;2022-12-24T12:27:35;9.05;;;3.30;;
61188;SDS011;47054;39.716;2.904;2022-12-24T12:30:29;11.05;;;3.78;;
61188;SDS011;47054;39.716;2.904;2022-12-24T12:33:19;14.05;;;4.13;;
61188;SDS011;47054;39.716;2.904;2022-12-24T12:36:10;15.63;;;3.85;;
61188;SDS011;47054;39.716;2.904;2022-12-24T12:38:59;10.82;;;4.13;;
61188;SDS011;47054;39.716;2.904;2022-12-24T12:44:40;11.52;;;3.72;;
61188;SDS011;47054;39.716;2.904;2022-12-24T12:50:39;13.20;;;4.10;;
61188;SDS011;47054;39.716;2.904;2022-12-24T12:53:46;11.23;;;3.72;;
61188;SDS011;47054;39.716;2.904;2022-12-24T12:56:55;10.73;;;3.25;;
61188;SDS011;47054;39.716;2.904;2022-12-24T12:59:53;13.75;;;3.80;;
61188;SDS011;47054;39.716;2.904;2022-12-24T13:10:14;15.45;;;4.68;;
61188;SDS011;47054;39.716;2.904;2022-12-24T13:21:54;16.65;;;5.70;;
61188;SDS011;47054;39.716;2.904;2022-12-24T13:24:51;12.32;;;5.78;;
61188;SDS011;47054;39.716;2.904;2022-12-24T13:27:38;16.13;;;5.30;;
61188;SDS011;47054;39.716;2.904;2022-12-24T13:30:33;10.70;;;4.10;;
61188;SDS011;47054;39.716;2.904;2022-12-24T13:36:21;16.40;;;4.57;;
61188;SDS011;47054;39.716;2.904;2022-12-24T13:39:10;16.33;;;4.65;;
61188;SDS011;47054;39.716;2.904;2022-12-24T13:42:02;14.80;;;4.70;;
61188;SDS011;47054;39.716;2.904;2022-12-24T13:44:47;15.55;;;4.82;;
61188;SDS011;47054;39.716;2.904;2022-12-24T13:50:55;12.77;;;3.75;;
61188;SDS011;47054;39.716;2.904;2022-12-24T13:53:44;10.27;;;4.22;;
61188;SDS011;47054;39.716;2.904;2022-12-24T13:56:31;11.93;;;4.40;;
61188;SDS011;47054;39.716;2.904;2022-12-24T13:59:25;9.75;;;4.15;;
61188;SDS011;47054;39.716;2.904;2022-12-24T14:02:17;15.63;;;4.35;;
61188;SDS011;47054;39.716;2.904;2022-12-24T14:05:06;10.13;;;3.85;;
61188;SDS011;47054;39.716;2.904;2022-12-24T14:08:01;15.82;;;4.00;;
61188;SDS011;47054;39.716;2.904;2022-12-24T14:16:44;11.10;;;4.05;;
61188;SDS011;47054;39.716;2.904;2022-12-24T14:19:42;9.57;;;3.80;;
61188;SDS011;47054;39.716;2.904;2022-12-24T14:22:31;9.35;;;3.83;;
61188;SDS011;47054;39.716;2.904;2022-12-24T14:25:22;9.88;;;3.80;;
61188;SDS011;47054;39.716;2.904;2022-12-24T14:28:11;12.07;;;3.75;;
61188;SDS011;47054;39.716;2.904;2022-12-24T14:31:01;12.40;;;3.78;;
61188;SDS011;47054;39.716;2.904;2022-12-24T14:33:47;7.18;;;3.47;;
61188;SDS011;47054;39.716;2.904;2022-12-24T14:36:31;8.45;;;3.53;;
61188;SDS011;47054;39.716;2.904;2022-12-24T14:45:26;12.55;;;4.38;;
61188;SDS011;47054;39.716;2.904;2022-12-24T14:48:36;10.65;;;4.13;;
61188;SDS011;47054;39.716;2.904;2022-12-24T14:54:47;10.35;;;4.00;;
61188;SDS011;47054;39.716;2.904;2022-12-24T14:57:32;8.27;;;4.28;;
61188;SDS011;47054;39.716;2.904;2022-12-24T15:00:19;10.73;;;4.00;;
61188;SDS011;47054;39.716;2.904;2022-12-24T15:03:07;9.40;;;4.00;;
61188;SDS011;47054;39.716;2.904;2022-12-24T15:06:07;8.85;;;3.92;;
61188;SDS011;47054;39.716;2.904;2022-12-24T15:08:53;11.00;;;3.92;;
61188;SDS011;47054;39.716;2.904;2022-12-24T15:11:42;9.73;;;4.03;;
61188;SDS011;47054;39.716;2.904;2022-12-24T15:14:28;11.85;;;3.88;;
61188;SDS011;47054;39.716;2.904;2022-12-24T15:17:26;8.65;;;3.92;;
61188;SDS011;47054;39.716;2.904;2022-12-24T15:20:17;10.00;;;4.18;;
61188;SDS011;47054;39.716;2.904;2022-12-24T15:23:15;10.15;;;4.10;;
61188;SDS011;47054;39.716;2.904;2022-12-24T15:26:07;17.63;;;4.65;;
61188;SDS011;47054;39.716;2.904;2022-12-24T15:29:12;10.95;;;4.43;;
61188;SDS011;47054;39.716;2.904;2022-12-24T15:32:04;11.38;;;4.45;;
61188;SDS011;47054;39.716;2.904;2022-12-24T15:34:50;10.13;;;3.83;;
61188;SDS011;47054;39.716;2.904;2022-12-24T15:37:36;8.23;;;3.70;;
61188;SDS011;47054;39.716;2.904;2022-12-24T15:40:25;12.23;;;3.80;;
61188;SDS011;47054;39.716;2.904;2022-12-24T15:43:10;7.95;;;4.07;;
61188;SDS011;47054;39.716;2.904;2022-12-24T15:45:54;6.43;;;3.63;;
61188;SDS011;47054;39.716;2.904;2022-12-24T15:48:39;9.05;;;4.10;;
61188;SDS011;47054;39.716;2.904;2022-12-24T15:51:32;10.85;;;3.63;;
61188;SDS011;47054;39.716;2.904;2022-12-24T15:54:19;6.55;;;3.42;;
61188;SDS011;47054;39.716;2.904;2022-12-24T15:57:12;9.18;;;3.78;;
61188;SDS011;47054;39.716;2.904;2022-12-24T16:00:18;8.82;;;3.75;;
61188;SDS011;47054;39.716;2.904;2022-12-24T16:03:15;11.32;;;3.70;;
61188;SDS011;47054;39.716;2.904;2022-12-24T16:06:02;14.38;;;4.05;;
61188;SDS011;47054;39.716;2.904;2022-12-24T16:08:51;10.30;;;3.70;;
61188;SDS011;47054;39.716;2.904;2022-12-24T16:11:38;6.72;;;3.45;;
61188;SDS011;47054;39.716;2.904;2022-12-24T16:14:23;7.13;;;3.92;;
61188;SDS011;47054;39.716;2.904;2022-12-24T16:17:18;9.70;;;3.35;;
61188;SDS011;47054;39.716;2.904;2022-12-24T16:20:06;8.80;;;3.88;;
61188;SDS011;47054;39.716;2.904;2022-12-24T16:23:03;10.20;;;4.28;;
61188;SDS011;47054;39.716;2.904;2022-12-24T16:25:48;8.48;;;3.70;;
61188;SDS011;47054;39.716;2.904;2022-12-24T16:28:35;11.85;;;4.20;;
61188;SDS011;47054;39.716;2.904;2022-12-24T16:31:30;10.82;;;4.03;;
61188;SDS011;47054;39.716;2.904;2022-12-24T16:34:17;9.05;;;4.18;;
61188;SDS011;47054;39.716;2.904;2022-12-24T16:37:03;8.40;;;3.70;;
61188;SDS011;47054;39.716;2.904;2022-12-24T16:39:48;9.15;;;3.92;;
61188;SDS011;47054;39.716;2.904;2022-12-24T16:42:33;11.07;;;3.63;;
61188;SDS011;47054;39.716;2.904;2022-12-24T16:45:36;6.95;;;3.47;;
61188;SDS011;47054;39.716;2.904;2022-12-24T16:48:22;8.00;;;3.50;;
61188;SDS011;47054;39.716;2.904;2022-12-24T16:51:07;8.07;;;3.60;;
61188;SDS011;47054;39.716;2.904;2022-12-24T16:53:52;7.68;;;3.22;;
61188;SDS011;47054;39.716;2.904;2022-12-24T16:56:36;6.40;;;3.63;;
61188;SDS011;47054;39.716;2.904;2022-12-24T16:59:22;9.00;;;3.47;;
61188;SDS011;47054;39.716;2.904;2022-12-24T17:02:09;12.43;;;3.58;;
61188;SDS011;47054;39.716;2.904;2022-12-24T17:04:56;9.15;;;3.50;;
61188;SDS011;47054;39.716;2.904;2022-12-24T17:07:41;5.93;;;3.70;;
61188;SDS011;47054;39.716;2.904;2022-12-24T17:10:26;6.50;;;3.13;;
61188;SDS011;47054;39.716;2.904;2022-12-24T17:13:11;7.65;;;3.55;;
61188;SDS011;47054;39.716;2.904;2022-12-24T17:15:56;8.02;;;3.55;;
61188;SDS011;47054;39.716;2.904;2022-12-24T17:18:40;9.77;;;3.55;;
61188;SDS011;47054;39.716;2.904;2022-12-24T17:21:25;6.82;;;3.50;;
61188;SDS011;47054;39.716;2.904;2022-12-24T17:24:09;7.60;;;3.70;;
61188;SDS011;47054;39.716;2.904;2022-12-24T17:26:55;7.32;;;3.30;;
61188;SDS011;47054;39.716;2.904;2022-12-24T17:29:40;7.63;;;3.20;;
61188;SDS011;47054;39.716;2.904;2022-12-24T17:32:25;5.72;;;3.20;;
61188;SDS011;47054;39.716;2.904;2022-12-24T17:35:13;7.25;;;3.42;;
61188;SDS011;47054;39.716;2.904;2022-12-24T17:37:58;7.70;;;3.38;;
61188;SDS011;47054;39.716;2.904;2022-12-24T17:40:43;6.50;;;3.10;;
61188;SDS011;47054;39.716;2.904;2022-12-24T17:43:28;6.30;;;3.17;;
61188;SDS011;47054;39.716;2.904;2022-12-24T17:46:13;11.05;;;3.80;;
61188;SDS011;47054;39.716;2.904;2022-12-24T17:49:05;9.23;;;3.13;;
61188;SDS011;47054;39.716;2.904;2022-12-24T17:51:50;6.13;;;3.25;;
61188;SDS011;47054;39.716;2.904;2022-12-24T17:54:34;6.70;;;3.33;;
61188;SDS011;47054;39.716;2.904;2022-12-24T17:57:20;6.03;;;3.60;;
61188;SDS011;47054;39.716;2.904;2022-12-24T18:00:04;8.75;;;4.00;;
61188;SDS011;47054;39.716;2.904;2022-12-24T18:02:51;9.70;;;3.90;;
61188;SDS011;47054;39.716;2.904;2022-12-24T18:05:35;9.90;;;4.05;;
61188;SDS011;47054;39.716;2.904;2022-12-24T18:08:20;10.30;;;4.18;;
61188;SDS011;47054;39.716;2.904;2022-12-24T18:13:56;10.35;;;4.72;;
61188;SDS011;47054;39.716;2.904;2022-12-24T18:16:42;8.55;;;4.07;;
61188;SDS011;47054;39.716;2.904;2022-12-24T18:19:28;10.10;;;3.70;;
61188;SDS011;47054;39.716;2.904;2022-12-24T18:22:13;10.50;;;4.40;;
61188;SDS011;47054;39.716;2.904;2022-12-24T18:24:57;10.00;;;4.05;;
61188;SDS011;47054;39.716;2.904;2022-12-24T18:27:41;9.07;;;4.03;;
61188;SDS011;47054;39.716;2.904;2022-12-24T18:30:26;12.48;;;4.15;;
61188;SDS011;47054;39.716;2.904;2022-12-24T18:33:10;11.07;;;4.18;;
61188;SDS011;47054;39.716;2.904;2022-12-24T18:35:55;9.35;;;4.05;;